Time;durP1;ratioP1;P1;durP2;ratioP2;P2;SDS_P1;SDS_P2;PMS_P1;PMS_P2;Temp;Humidity;BMP_temperature;BMP_pressure;BME280_temperature;BME280_humidity;BME280_pressure;Samples;Min_cycle;Max_cycle;Signal;HPM_P1;HPM_P2
2024/01/11 00:01:19;;;;;;;7.00;6.30;;;3.40;99.90;;;;;;5068542;28;20279;-64
2024/01/11 00:03:47;;;;;;;8.17;6.57;;;3.40;99.90;;;;;;5068646;28;20203;-61
2024/01/11 00:06:15;;;;;;;10.03;6.87;;;3.30;99.90;;;;;;5068287;28;20208;-64
2024/01/11 00:08:44;;;;;;;10.70;7.43;;;3.40;99.90;;;;;;5068450;28;20198;-63
2024/01/11 00:11:12;;;;;;;9.80;6.87;;;3.40;99.90;;;;;;5068500;28;20258;-63
2024/01/11 00:13:43;;;;;;;6.97;5.97;;;3.30;99.90;;;;;;5072664;28;20203;-62
2024/01/11 00:16:11;;;;;;;8.63;6.90;;;3.40;99.90;;;;;;5092065;28;20245;-60
2024/01/11 00:18:41;;;;;;;8.20;5.93;;;3.30;99.90;;;;;;5091019;28;20229;-59
2024/01/11 00:21:09;;;;;;;6.00;5.40;;;3.40;99.90;;;;;;5090349;28;20292;-63
2024/01/11 00:23:38;;;;;;;6.50;5.83;;;3.50;99.90;;;;;;5091285;28;20211;-60
2024/01/11 00:26:06;;;;;;;8.00;6.00;;;3.60;99.90;;;;;;5080979;28;20200;-63
2024/01/11 00:28:34;;;;;;;7.90;5.63;;;3.60;99.90;;;;;;5070735;28;20237;-65
2024/01/11 00:31:03;;;;;;;7.27;5.80;;;3.50;99.90;;;;;;5070515;28;20201;-60
2024/01/11 00:33:31;;;;;;;5.93;5.23;;;3.50;99.90;;;;;;5070829;28;20199;-62
2024/01/11 00:36:01;;;;;;;9.30;6.50;;;3.50;99.90;;;;;;5070208;28;20203;-62
2024/01/11 00:38:29;;;;;;;8.93;5.60;;;3.50;99.90;;;;;;5070440;28;20226;-65
2024/01/11 00:40:57;;;;;;;7.13;5.30;;;3.50;99.90;;;;;;5070217;28;20196;-65
2024/01/11 00:43:26;;;;;;;5.37;4.83;;;3.50;99.90;;;;;;5070435;28;20227;-65
2024/01/11 00:45:54;;;;;;;5.87;4.83;;;3.50;99.90;;;;;;5070556;28;20189;-65
2024/01/11 00:48:22;;;;;;;6.53;5.07;;;3.50;99.90;;;;;;5070470;28;20283;-65
2024/01/11 00:50:50;;;;;;;7.70;4.87;;;3.50;99.90;;;;;;5070394;28;20567;-62
2024/01/11 00:53:22;;;;;;;5.20;4.70;;;3.60;99.90;;;;;;4988021;28;20222;-62
2024/01/11 00:55:52;;;;;;;5.90;5.33;;;3.60;99.90;;;;;;4988272;28;20319;-65
2024/01/11 00:58:20;;;;;;;6.23;5.17;;;3.80;99.90;;;;;;4988549;28;20262;-66
2024/01/11 01:00:48;;;;;;;5.80;4.87;;;3.80;99.90;;;;;;4988522;28;20195;-62
2024/01/11 01:03:17;;;;;;;5.63;5.03;;;3.90;99.90;;;;;;4988292;28;20207;-64
2024/01/11 01:05:45;;;;;;;6.17;4.90;;;3.90;99.90;;;;;;4971843;28;20209;-65
2024/01/11 01:08:14;;;;;;;7.03;5.53;;;4.00;99.90;;;;;;4988209;28;20290;-65
2024/01/11 01:10:44;;;;;;;6.73;5.13;;;4.00;99.90;;;;;;5000198;28;20671;-65
2024/01/11 01:13:12;;;;;;;5.97;4.73;;;4.00;99.90;;;;;;5070073;28;20205;-64
2024/01/11 01:15:41;;;;;;;6.47;4.30;;;4.00;99.90;;;;;;5070156;28;20266;-65
2024/01/11 01:18:09;;;;;;;4.50;4.10;;;4.10;99.90;;;;;;5069981;28;20224;-64
2024/01/11 01:20:37;;;;;;;8.70;4.00;;;3.90;99.90;;;;;;5069784;28;20285;-63
2024/01/11 01:23:06;;;;;;;6.00;4.23;;;3.90;99.90;;;;;;5069053;28;20197;-61
2024/01/11 01:25:35;;;;;;;4.80;4.03;;;3.80;99.90;;;;;;5069886;28;20288;-64
2024/01/11 01:28:05;;;;;;;5.70;3.87;;;3.80;99.90;;;;;;5069748;28;20195;-65
2024/01/11 01:30:33;;;;;;;6.67;4.07;;;3.80;99.90;;;;;;5070132;28;20564;-66
2024/01/11 01:33:02;;;;;;;5.17;3.90;;;3.80;99.90;;;;;;5069639;28;20189;-65
2024/01/11 01:35:30;;;;;;;5.30;3.83;;;3.70;99.90;;;;;;5069751;28;20255;-64
2024/01/11 01:37:57;;;;;;;5.40;4.10;;;3.70;99.90;;;;;;5068968;28;20239;-65
2024/01/11 01:40:26;;;;;;;5.10;4.27;;;3.70;99.90;;;;;;5069528;28;20197;-65
2024/01/11 01:42:59;;;;;;;7.67;4.00;;;3.70;99.90;;;;;;5069819;28;20197;-64
2024/01/11 01:45:29;;;;;;;6.60;4.20;;;3.80;99.90;;;;;;5069413;28;20274;-65
2024/01/11 01:47:57;;;;;;;4.83;3.67;;;3.60;99.90;;;;;;5069379;28;20315;-61
2024/01/11 01:50:27;;;;;;;6.07;3.57;;;3.60;99.90;;;;;;5069183;28;20640;-64
2024/01/11 01:52:56;;;;;;;4.63;4.07;;;3.60;99.90;;;;;;5069081;28;20223;-61
2024/01/11 01:55:26;;;;;;;4.77;3.80;;;3.60;99.90;;;;;;5068952;28;20201;-64
2024/01/11 01:57:55;;;;;;;6.37;4.00;;;3.60;99.90;;;;;;5069232;28;20204;-64
2024/01/11 02:00:23;;;;;;;7.10;4.43;;;3.60;99.90;;;;;;5069215;28;20195;-64
2024/01/11 02:02:54;;;;;;;4.77;3.20;;;3.70;99.90;;;;;;5068935;28;20617;-62
2024/01/11 02:05:23;;;;;;;6.17;3.97;;;3.60;99.90;;;;;;5069091;28;20706;-64
2024/01/11 02:07:51;;;;;;;5.43;4.93;;;3.60;99.90;;;;;;5068655;28;20654;-61
2024/01/11 02:10:20;;;;;;;4.47;3.40;;;3.60;99.90;;;;;;5068764;28;20674;-63
2024/01/11 02:12:49;;;;;;;4.50;4.00;;;3.60;99.90;;;;;;5068827;28;20570;-63
2024/01/11 02:15:17;;;;;;;4.33;3.50;;;3.60;99.90;;;;;;5068805;28;20205;-64
2024/01/11 02:17:45;;;;;;;7.70;4.50;;;3.70;99.90;;;;;;5068623;28;20565;-64
2024/01/11 02:20:15;;;;;;;6.87;4.47;;;3.70;99.90;;;;;;5068856;28;20220;-65
2024/01/11 02:22:48;;;;;;;7.37;3.93;;;3.60;99.90;;;;;;5068748;28;20212;-63
2024/01/11 02:25:18;;;;;;;6.73;4.30;;;3.60;99.90;;;;;;5068641;28;20315;-62
2024/01/11 02:27:47;;;;;;;8.20;4.13;;;3.60;99.90;;;;;;5068486;28;20208;-63
2024/01/11 02:30:16;;;;;;;5.90;4.47;;;3.60;99.90;;;;;;5068381;28;20235;-55
2024/01/11 02:32:47;;;;;;;3.93;3.53;;;3.70;99.90;;;;;;5068647;28;20191;-63
2024/01/11 02:35:16;;;;;;;6.70;3.97;;;3.70;99.90;;;;;;5067855;28;20640;-60
2024/01/11 02:37:45;;;;;;;5.40;3.87;;;3.80;99.90;;;;;;5068323;28;20189;-64
2024/01/11 02:40:15;;;;;;;5.80;4.17;;;3.80;99.90;;;;;;5068031;28;20567;-61
2024/01/11 02:42:45;;;;;;;5.97;3.77;;;3.80;99.90;;;;;;5068484;28;20667;-64
2024/01/11 02:45:13;;;;;;;6.70;3.80;;;3.80;99.90;;;;;;5068280;28;20189;-60
2024/01/11 02:47:42;;;;;;;5.73;3.83;;;3.80;99.90;;;;;;5068485;28;20206;-64
2024/01/11 02:50:11;;;;;;;4.63;3.77;;;3.70;99.90;;;;;;5068362;28;20201;-63
2024/01/11 02:52:40;;;;;;;5.20;4.33;;;3.70;99.90;;;;;;5068116;28;20288;-61
2024/01/11 02:55:09;;;;;;;5.53;4.00;;;3.70;99.90;;;;;;5068204;28;20294;-63
2024/01/11 02:57:37;;;;;;;7.27;4.33;;;3.80;99.90;;;;;;5068700;28;20193;-61
2024/01/11 03:00:08;;;;;;;7.13;4.13;;;3.80;99.90;;;;;;5068354;28;20213;-64
2024/01/11 03:02:38;;;;;;;5.53;3.93;;;3.80;99.90;;;;;;5068683;28;20947;-63
2024/01/11 03:05:07;;;;;;;7.10;4.07;;;3.70;99.90;;;;;;5068644;28;20189;-64
2024/01/11 03:07:35;;;;;;;6.70;4.20;;;3.70;99.90;;;;;;5068205;28;20717;-61
2024/01/11 03:10:04;;;;;;;6.47;4.30;;;3.80;99.90;;;;;;5050250;28;20205;-62
2024/01/11 03:12:32;;;;;;;4.57;3.80;;;3.90;99.90;;;;;;5068411;28;20192;-63
2024/01/11 03:15:01;;;;;;;6.47;4.23;;;3.80;99.90;;;;;;5068451;28;20202;-62
2024/01/11 03:17:30;;;;;;;5.10;4.07;;;3.90;99.90;;;;;;5068549;28;20193;-60
2024/01/11 03:19:59;;;;;;;8.33;4.03;;;4.00;99.90;;;;;;5068529;28;20636;-64
2024/01/11 03:22:28;;;;;;;8.20;4.17;;;3.90;99.90;;;;;;5068215;28;20200;-61
2024/01/11 03:24:56;;;;;;;5.40;3.80;;;3.90;99.90;;;;;;5067961;28;20197;-64
2024/01/11 03:27:24;;;;;;;8.47;4.43;;;4.00;99.90;;;;;;5068160;28;20690;-65
2024/01/11 03:29:53;;;;;;;8.47;4.23;;;4.00;99.90;;;;;;5067553;28;20294;-61
2024/01/11 03:32:21;;;;;;;6.27;3.80;;;4.00;99.90;;;;;;5067840;28;20759;-59
2024/01/11 03:34:51;;;;;;;4.43;3.80;;;3.90;99.90;;;;;;5067881;28;20809;-64
2024/01/11 03:37:19;;;;;;;7.20;3.60;;;4.00;99.90;;;;;;5067569;28;20193;-59
2024/01/11 03:39:47;;;;;;;6.73;4.00;;;4.00;99.90;;;;;;5067448;28;20229;-64
2024/01/11 03:42:15;;;;;;;8.40;4.23;;;4.00;99.90;;;;;;5067487;28;20201;-65
2024/01/11 03:44:44;;;;;;;11.07;4.50;;;4.10;99.90;;;;;;5067719;28;20203;-64
2024/01/11 03:47:12;;;;;;;5.73;4.00;;;4.10;99.90;;;;;;5071706;28;20197;-64
2024/01/11 03:49:40;;;;;;;6.60;4.20;;;4.00;99.90;;;;;;5071764;28;20686;-65
2024/01/11 03:52:10;;;;;;;7.00;4.23;;;4.10;99.90;;;;;;5071579;28;20200;-64
2024/01/11 03:54:38;;;;;;;5.27;3.97;;;4.10;99.90;;;;;;5071586;28;20185;-65
2024/01/11 03:57:07;;;;;;;6.33;3.73;;;4.20;99.90;;;;;;5071148;28;20201;-65
2024/01/11 03:59:36;;;;;;;9.67;3.93;;;4.10;99.90;;;;;;5071405;28;20244;-61
2024/01/11 04:02:04;;;;;;;5.13;4.00;;;4.00;99.90;;;;;;5071508;28;20201;-65
2024/01/11 04:04:33;;;;;;;8.27;3.90;;;4.10;99.90;;;;;;5071362;28;20192;-66
2024/01/11 04:07:01;;;;;;;6.10;4.30;;;4.00;99.90;;;;;;5071547;28;20297;-65
2024/01/11 04:09:31;;;;;;;6.63;3.97;;;3.90;99.90;;;;;;5071107;28;20208;-65
2024/01/11 04:11:59;;;;;;;5.70;3.70;;;4.00;99.90;;;;;;5071345;28;20256;-64
2024/01/11 04:14:27;;;;;;;4.73;3.33;;;4.00;99.90;;;;;;5071138;28;20204;-63
2024/01/11 04:16:56;;;;;;;4.80;3.77;;;3.80;99.90;;;;;;5071001;28;20284;-65
2024/01/11 04:19:24;;;;;;;7.03;4.00;;;3.80;99.90;;;;;;5071117;28;20197;-65
2024/01/11 04:21:52;;;;;;;6.80;4.33;;;3.80;99.90;;;;;;5071197;28;20281;-65
2024/01/11 04:24:21;;;;;;;5.33;4.00;;;3.80;99.90;;;;;;5052583;28;20208;-65
2024/01/11 04:26:50;;;;;;;7.33;3.57;;;3.80;99.90;;;;;;5070920;28;20205;-64
2024/01/11 04:29:19;;;;;;;4.50;4.00;;;3.80;99.90;;;;;;5070845;28;20221;-62
2024/01/11 04:31:47;;;;;;;6.43;4.67;;;3.80;99.90;;;;;;5070807;28;21091;-62
2024/01/11 04:34:16;;;;;;;6.00;3.63;;;3.90;99.90;;;;;;5070994;28;20204;-63
2024/01/11 04:36:44;;;;;;;5.40;4.23;;;3.90;99.90;;;;;;5070820;28;20311;-62
2024/01/11 04:39:13;;;;;;;7.70;4.80;;;3.90;99.90;;;;;;5070512;28;20204;-63
2024/01/11 04:41:41;;;;;;;9.17;4.30;;;4.00;99.90;;;;;;5071087;28;20216;-61
2024/01/11 04:44:11;;;;;;;7.37;4.30;;;4.10;99.90;;;;;;5070940;28;20201;-56
2024/01/11 04:46:39;;;;;;;6.87;4.60;;;4.10;99.90;;;;;;5070939;28;20277;-64
2024/01/11 04:49:08;;;;;;;9.63;4.50;;;3.90;99.90;;;;;;5070605;28;20197;-60
2024/01/11 04:51:36;;;;;;;14.03;5.93;;;3.90;99.90;;;;;;5070751;28;20279;-62
2024/01/11 04:54:04;;;;;;;13.63;6.40;;;4.10;99.90;;;;;;5070636;28;20197;-64
2024/01/11 04:56:33;;;;;;;11.17;5.77;;;4.10;99.90;;;;;;5070090;28;20209;-62
2024/01/11 04:59:01;;;;;;;11.10;4.43;;;4.10;99.90;;;;;;5069974;28;20216;-63
2024/01/11 05:01:31;;;;;;;7.37;4.60;;;4.20;99.90;;;;;;5070847;28;20217;-64
2024/01/11 05:03:59;;;;;;;8.50;4.50;;;4.10;99.90;;;;;;5070772;28;20189;-62
2024/01/11 05:06:27;;;;;;;7.57;4.20;;;4.10;99.90;;;;;;5070303;28;20203;-64
2024/01/11 05:08:56;;;;;;;7.80;4.57;;;4.00;99.90;;;;;;5069815;28;20197;-60
2024/01/11 05:11:25;;;;;;;6.27;4.53;;;4.00;99.90;;;;;;5070038;28;20207;-60
2024/01/11 05:13:54;;;;;;;5.37;4.07;;;4.00;99.90;;;;;;5069838;28;20561;-64
2024/01/11 05:16:23;;;;;;;9.53;5.97;;;3.90;99.90;;;;;;5070059;28;20718;-62
2024/01/11 05:18:54;;;;;;;7.63;4.63;;;3.80;99.90;;;;;;5069806;28;20196;-66
2024/01/11 05:21:23;;;;;;;7.13;4.37;;;3.90;99.90;;;;;;5070042;28;20266;-61
2024/01/11 05:23:52;;;;;;;8.77;4.33;;;3.80;99.90;;;;;;5069930;28;20669;-65
2024/01/11 05:26:20;;;;;;;9.37;4.70;;;3.80;99.90;;;;;;5070137;28;20215;-65
2024/01/11 05:28:49;;;;;;;8.37;5.00;;;3.90;99.90;;;;;;5069425;28;20603;-64
2024/01/11 05:31:17;;;;;;;9.30;6.17;;;4.00;99.90;;;;;;5069858;28;20204;-65
2024/01/11 05:33:46;;;;;;;9.17;5.33;;;4.10;99.90;;;;;;5070479;28;20201;-64
2024/01/11 05:36:16;;;;;;;11.27;5.27;;;4.10;99.90;;;;;;5052031;28;20205;-65
2024/01/11 05:38:46;;;;;;;8.63;4.93;;;3.90;99.90;;;;;;5069668;28;20195;-65
2024/01/11 05:41:14;;;;;;;8.73;4.53;;;4.00;99.90;;;;;;5069464;28;20262;-66
2024/01/11 05:43:44;;;;;;;11.33;5.57;;;3.90;99.90;;;;;;5069565;28;20201;-64
2024/01/11 05:46:12;;;;;;;8.83;5.07;;;4.00;99.90;;;;;;5069338;28;20203;-65
2024/01/11 05:48:40;;;;;;;15.33;6.83;;;4.00;99.90;;;;;;5069286;28;20198;-64
2024/01/11 05:51:09;;;;;;;13.83;7.43;;;4.20;99.90;;;;;;5069433;28;20208;-65
2024/01/11 05:53:39;;;;;;;22.70;14.57;;;4.30;99.90;;;;;;5069132;28;20689;-65
2024/01/11 05:56:11;;;;;;;14.33;9.53;;;4.20;99.90;;;;;;5069231;28;20196;-64
2024/01/11 05:58:41;;;;;;;13.57;8.53;;;4.20;99.90;;;;;;5069598;28;20223;-60
2024/01/11 06:01:09;;;;;;;10.07;7.50;;;4.20;99.90;;;;;;5068947;28;20235;-62
2024/01/11 06:03:39;;;;;;;8.00;5.83;;;4.20;99.90;;;;;;5069148;28;20197;-64
2024/01/11 06:06:08;;;;;;;10.37;7.03;;;4.20;99.90;;;;;;5068864;28;20767;-64
2024/01/11 06:08:36;;;;;;;12.73;7.60;;;4.20;99.90;;;;;;5067905;28;20298;-65
2024/01/11 06:11:07;;;;;;;12.90;7.83;;;4.30;99.90;;;;;;5068760;28;20537;-64
2024/01/11 06:13:36;;;;;;;19.70;10.83;;;4.30;99.90;;;;;;5069147;28;20284;-64
2024/01/11 06:16:04;;;;;;;23.00;14.03;;;4.30;99.90;;;;;;5068709;28;20197;-62
2024/01/11 06:18:33;;;;;;;20.30;11.30;;;4.30;99.90;;;;;;5069276;28;20378;-58
2024/01/11 06:21:01;;;;;;;17.23;9.97;;;4.20;99.90;;;;;;5069511;28;20219;-66
2024/01/11 06:23:29;;;;;;;14.47;8.73;;;4.20;99.90;;;;;;5067272;28;20227;-63
2024/01/11 06:25:58;;;;;;;9.13;5.97;;;4.20;99.90;;;;;;5069353;28;20244;-64
2024/01/11 06:28:27;;;;;;;8.30;5.93;;;4.20;99.90;;;;;;5069830;28;20225;-62
2024/01/11 06:30:56;;;;;;;10.90;6.10;;;4.20;99.90;;;;;;5069745;28;20207;-64
2024/01/11 06:33:24;;;;;;;10.33;6.17;;;4.10;99.90;;;;;;5070082;28;20518;-63
2024/01/11 06:35:52;;;;;;;9.23;5.80;;;4.10;99.90;;;;;;5069404;28;20201;-64
2024/01/11 06:38:21;;;;;;;8.30;4.97;;;4.10;99.90;;;;;;5068934;28;20287;-62
2024/01/11 06:40:49;;;;;;;9.17;5.33;;;4.10;99.90;;;;;;5068888;28;20312;-63
2024/01/11 06:43:18;;;;;;;6.53;4.00;;;4.10;99.90;;;;;;5069295;28;20197;-63
2024/01/11 06:45:47;;;;;;;7.77;4.20;;;4.00;99.90;;;;;;5069308;28;20667;-57
2024/01/11 06:48:16;;;;;;;10.80;5.07;;;4.00;99.90;;;;;;5069115;28;20199;-64
2024/01/11 06:50:44;;;;;;;6.53;4.10;;;4.10;99.90;;;;;;5069313;28;20215;-63
2024/01/11 06:53:13;;;;;;;7.33;4.57;;;4.10;99.90;;;;;;5069286;28;20220;-65
2024/01/11 06:55:43;;;;;;;22.80;14.30;;;4.10;99.90;;;;;;5069259;28;20289;-65
2024/01/11 06:58:12;;;;;;;9.73;5.17;;;4.30;99.90;;;;;;5069175;28;20210;-64
2024/01/11 07:00:43;;;;;;;11.67;6.30;;;4.30;99.90;;;;;;5068889;28;20249;-65
2024/01/11 07:03:13;;;;;;;11.80;7.40;;;4.40;99.90;;;;;;5069193;28;20197;-65
2024/01/11 07:05:41;;;;;;;11.23;6.67;;;4.50;99.90;;;;;;5069127;28;20204;-62
2024/01/11 07:08:10;;;;;;;17.30;6.70;;;4.50;99.90;;;;;;5068830;28;20212;-64
2024/01/11 07:10:38;;;;;;;10.63;6.63;;;4.50;99.90;;;;;;5068356;28;20288;-62
2024/01/11 07:13:06;;;;;;;10.93;7.23;;;4.50;99.90;;;;;;5068812;28;20194;-59
2024/01/11 07:15:35;;;;;;;9.67;5.77;;;4.50;99.90;;;;;;5068651;28;20204;-65
2024/01/11 07:18:04;;;;;;;8.77;5.97;;;4.50;99.90;;;;;;5068514;28;20287;-64
2024/01/11 07:20:34;;;;;;;7.63;4.63;;;4.50;99.90;;;;;;5068269;28;20536;-64
2024/01/11 07:23:03;;;;;;;8.47;5.00;;;4.30;99.90;;;;;;5068521;28;20310;-63
2024/01/11 07:25:34;;;;;;;7.20;4.17;;;4.20;99.90;;;;;;5068598;28;20196;-64
2024/01/11 07:28:02;;;;;;;5.97;4.80;;;4.20;99.90;;;;;;5068422;28;20296;-64
2024/01/11 07:30:32;;;;;;;7.37;3.87;;;4.20;99.90;;;;;;5068254;28;20197;-63
2024/01/11 07:33:01;;;;;;;7.77;4.20;;;4.30;99.90;;;;;;5068349;28;20216;-64
2024/01/11 07:35:30;;;;;;;9.67;3.90;;;4.40;99.90;;;;;;5068444;28;20272;-63
2024/01/11 07:37:59;;;;;;;5.60;4.20;;;4.30;99.90;;;;;;5068371;28;20197;-64
2024/01/11 07:40:28;;;;;;;6.30;4.53;;;4.30;99.90;;;;;;5068178;28;20197;-64
2024/01/11 07:42:57;;;;;;;5.57;4.47;;;4.10;99.90;;;;;;5068224;28;20251;-64
2024/01/11 07:45:25;;;;;;;8.87;5.03;;;4.10;99.90;;;;;;5050285;28;20555;-64
2024/01/11 07:47:53;;;;;;;12.87;7.30;;;4.10;99.90;;;;;;5068545;28;20200;-62
2024/01/11 07:50:22;;;;;;;15.33;8.93;;;4.10;99.90;;;;;;5068396;28;20628;-58
2024/01/11 07:52:50;;;;;;;9.30;5.53;;;4.10;99.90;;;;;;5068457;28;20666;-64
2024/01/11 07:55:23;;;;;;;11.67;6.00;;;4.20;99.90;;;;;;5068280;28;20254;-63
2024/01/11 07:57:52;;;;;;;6.27;4.50;;;4.20;99.90;;;;;;5068274;28;20242;-62
2024/01/11 08:00:20;;;;;;;8.57;5.17;;;4.30;99.90;;;;;;5067855;28;20193;-60
2024/01/11 08:02:48;;;;;;;6.07;5.13;;;4.40;99.90;;;;;;5068234;28;20694;-63
2024/01/11 08:05:17;;;;;;;10.37;6.20;;;4.50;99.90;;;;;;5068193;28;20284;-62
2024/01/11 08:07:45;;;;;;;9.10;7.27;;;4.70;99.90;;;;;;5068585;28;20208;-63
2024/01/11 08:10:14;;;;;;;12.37;7.20;;;4.70;99.90;;;;;;5068031;28;20238;-65
2024/01/11 08:12:43;;;;;;;9.00;6.57;;;4.80;99.90;;;;;;5068262;28;20195;-66
2024/01/11 08:15:12;;;;;;;8.97;6.30;;;4.90;99.90;;;;;;5068577;28;20189;-65
2024/01/11 08:17:45;;;;;;;8.20;5.43;;;4.90;99.90;;;;;;5068172;28;20208;-65
2024/01/11 08:20:16;;;;;;;9.13;5.00;;;4.80;99.90;;;;;;5068181;28;20237;-64
2024/01/11 08:22:45;;;;;;;6.83;5.00;;;4.90;99.90;;;;;;5068269;28;20227;-64
2024/01/11 08:25:14;;;;;;;7.70;4.63;;;5.00;99.90;;;;;;5068000;28;20544;-60
2024/01/11 08:27:44;;;;;;;12.87;7.77;;;5.00;99.90;;;;;;5068340;28;20616;-63
2024/01/11 08:30:13;;;;;;;35.33;17.23;;;5.00;99.90;;;;;;5067707;28;20233;-65
2024/01/11 08:32:42;;;;;;;12.57;8.97;;;5.00;99.90;;;;;;5069548;28;20197;-64
2024/01/11 08:35:11;;;;;;;7.77;5.17;;;5.00;99.90;;;;;;5072021;28;20295;-64
2024/01/11 08:37:40;;;;;;;7.53;4.23;;;4.80;99.90;;;;;;5070686;28;20185;-59
2024/01/11 08:40:10;;;;;;;5.63;4.20;;;4.70;99.90;;;;;;5072059;28;20193;-61
2024/01/11 08:42:41;;;;;;;8.13;5.43;;;4.70;99.90;;;;;;5071825;28;20225;-63
2024/01/11 08:45:17;;;;;;;7.13;4.27;;;4.70;99.90;;;;;;5072122;28;20201;-63
2024/01/11 08:47:46;;;;;;;8.73;4.63;;;4.80;99.90;;;;;;5072386;28;20665;-62
2024/01/11 08:50:15;;;;;;;7.80;4.83;;;4.80;99.90;;;;;;5071815;28;20634;-61
2024/01/11 08:52:44;;;;;;;9.43;5.77;;;4.80;99.90;;;;;;5071573;28;20197;-65
2024/01/11 08:55:12;;;;;;;7.37;5.03;;;4.90;99.90;;;;;;5071759;28;20189;-64
2024/01/11 08:57:41;;;;;;;9.20;5.07;;;4.90;99.90;;;;;;5071271;28;20200;-63
2024/01/11 09:00:17;;;;;;;12.73;6.17;;;5.00;99.90;;;;;;5071518;28;20200;-65
2024/01/11 09:02:45;;;;;;;8.67;5.93;;;5.00;99.90;;;;;;5071423;28;20250;-63
2024/01/11 09:05:15;;;;;;;8.13;5.23;;;5.20;99.90;;;;;;5071427;28;20233;-61
2024/01/11 09:07:44;;;;;;;10.10;5.20;;;5.30;99.90;;;;;;5071315;28;20196;-64
2024/01/11 09:10:13;;;;;;;7.97;5.00;;;5.30;99.90;;;;;;5052322;28;20584;-66
2024/01/11 09:12:41;;;;;;;6.70;4.83;;;5.20;99.90;;;;;;5070723;28;20223;-59
2024/01/11 09:15:11;;;;;;;12.20;7.83;;;5.10;99.90;;;;;;5070801;28;20209;-63
2024/01/11 09:17:39;;;;;;;8.60;6.77;;;5.10;99.90;;;;;;5070670;28;20212;-61
2024/01/11 09:20:09;;;;;;;10.77;5.80;;;5.20;99.90;;;;;;5070788;28;20202;-65
2024/01/11 09:22:37;;;;;;;9.47;4.80;;;5.20;99.90;;;;;;5070371;28;20228;-65
2024/01/11 09:25:07;;;;;;;8.47;5.40;;;5.30;99.90;;;;;;5070592;28;20451;-65
2024/01/11 09:27:35;;;;;;;9.20;5.40;;;5.40;99.90;;;;;;5070695;28;20277;-65
2024/01/11 09:30:04;;;;;;;8.63;5.17;;;5.50;99.90;;;;;;5070388;28;20228;-63
2024/01/11 09:32:34;;;;;;;7.57;4.87;;;5.50;99.90;;;;;;5070205;28;20662;-65
2024/01/11 09:35:04;;;;;;;9.43;6.47;;;5.40;99.90;;;;;;5070311;28;20673;-62
2024/01/11 09:37:33;;;;;;;9.17;6.20;;;5.50;99.90;;;;;;5070170;28;20201;-62
2024/01/11 09:40:01;;;;;;;9.30;5.50;;;5.40;99.90;;;;;;5069835;28;20208;-66
2024/01/11 09:42:29;;;;;;;6.13;5.23;;;5.60;99.90;;;;;;5070268;28;20209;-66
2024/01/11 09:44:59;;;;;;;8.67;4.97;;;5.50;99.90;;;;;;5069944;28;20698;-61
2024/01/11 09:47:27;;;;;;;7.10;5.10;;;5.50;99.90;;;;;;5070330;28;20943;-65
2024/01/11 09:49:59;;;;;;;7.83;4.93;;;5.50;99.90;;;;;;5070252;28;20225;-64
2024/01/11 09:52:31;;;;;;;9.27;5.33;;;5.70;99.90;;;;;;5069979;28;20211;-64
2024/01/11 09:55:01;;;;;;;9.40;6.43;;;5.80;99.90;;;;;;5069939;28;20193;-65
2024/01/11 09:57:31;;;;;;;9.60;5.90;;;5.90;99.90;;;;;;5070029;28;20189;-64
2024/01/11 09:59:59;;;;;;;11.40;7.70;;;6.00;99.90;;;;;;5074466;28;20185;-65
2024/01/11 10:02:28;;;;;;;13.33;8.50;;;6.10;99.90;;;;;;5090682;28;20240;-65
2024/01/11 10:04:58;;;;;;;39.43;21.67;;;6.10;99.90;;;;;;5084976;28;20239;-63
2024/01/11 10:07:26;;;;;;;17.30;9.50;;;6.30;99.90;;;;;;5067022;28;20197;-57
2024/01/11 10:09:54;;;;;;;10.37;8.00;;;6.40;99.90;;;;;;5069080;28;20218;-62
2024/01/11 10:12:24;;;;;;;12.10;7.37;;;6.40;99.90;;;;;;5070172;28;20193;-60
2024/01/11 10:14:53;;;;;;;11.43;7.47;;;6.40;99.90;;;;;;5069900;28;20201;-64
2024/01/11 10:17:22;;;;;;;11.60;7.10;;;6.20;99.90;;;;;;5069388;28;20638;-62
2024/01/11 10:19:54;;;;;;;8.50;4.83;;;6.20;99.90;;;;;;5070957;28;20567;-61
2024/01/11 10:22:24;;;;;;;8.00;5.47;;;6.10;99.90;;;;;;5090348;28;20203;-58
2024/01/11 10:25:10;;;;;;;10.10;5.40;;;6.00;99.90;;;;;;5090259;28;20200;-64
2024/01/11 10:27:41;;;;;;;10.23;6.23;;;6.00;99.90;;;;;;5090012;28;20200;-66
2024/01/11 10:30:12;;;;;;;14.00;9.40;;;6.10;99.90;;;;;;5089549;28;20269;-60
2024/01/11 10:32:41;;;;;;;17.47;10.77;;;6.00;99.90;;;;;;5090236;28;20197;-62
2024/01/11 10:35:10;;;;;;;14.23;8.67;;;6.10;99.90;;;;;;5090147;28;20243;-60
2024/01/11 10:37:40;;;;;;;9.50;6.97;;;6.10;99.90;;;;;;5089935;28;20241;-62
2024/01/11 10:40:12;;;;;;;9.47;6.40;;;6.20;99.90;;;;;;5089822;28;20189;-60
2024/01/11 10:42:45;;;;;;;11.23;5.93;;;6.20;99.90;;;;;;5025105;28;20210;-59
2024/01/11 10:45:17;;;;;;;10.90;5.57;;;6.30;99.90;;;;;;5023787;28;20207;-63
2024/01/11 10:47:52;;;;;;;8.63;5.47;;;6.10;99.90;;;;;;5026577;28;20230;-64
2024/01/11 10:50:23;;;;;;;8.50;5.40;;;6.20;99.90;;;;;;5026299;28;20202;-66
2024/01/11 10:53:03;;;;;;;14.50;7.33;;;6.10;99.90;;;;;;5026550;28;20197;-65
2024/01/11 10:55:34;;;;;;;21.13;11.77;;;6.00;99.90;;;;;;5025688;28;20218;-64
2024/01/11 10:58:03;;;;;;;11.53;6.93;;;6.00;99.90;;;;;;5026626;28;20283;-67
2024/01/11 11:00:32;;;;;;;8.17;5.77;;;6.00;99.90;;;;;;5047301;28;20963;-66
2024/01/11 11:04:03;;;;;;;13.47;8.57;;;6.50;99.90;;;;;;5147556;27;20297;-65
2024/01/11 11:06:35;;;;;;;11.83;6.47;;;6.90;99.90;;;;;;5147660;27;20194;-62
2024/01/11 11:09:06;;;;;;;18.60;7.97;;;6.70;99.90;;;;;;5147328;27;20659;-63
2024/01/11 11:11:35;;;;;;;13.93;7.63;;;6.60;99.90;;;;;;5147450;27;20747;-62
2024/01/11 11:14:06;;;;;;;11.37;6.97;;;6.60;99.90;;;;;;5147346;27;20195;-63
2024/01/11 11:16:34;;;;;;;8.67;6.53;;;6.50;99.90;;;;;;5147067;27;20199;-63
2024/01/11 11:19:04;;;;;;;13.30;6.80;;;6.40;99.90;;;;;;5147226;27;20667;-65
2024/01/11 11:21:32;;;;;;;7.43;5.07;;;6.40;99.90;;;;;;5147075;27;20656;-62
2024/01/11 11:24:01;;;;;;;4.33;3.93;;;6.30;99.90;;;;;;5147182;27;20222;-61
2024/01/11 11:26:29;;;;;;;6.67;4.67;;;6.10;99.90;;;;;;5147022;27;20535;-60
2024/01/11 11:29:00;;;;;;;8.50;5.13;;;6.00;99.90;;;;;;5147224;27;20293;-64
2024/01/11 11:31:38;;;;;;;7.87;4.60;;;6.10;99.90;;;;;;5146774;27;20197;-63
2024/01/11 11:34:11;;;;;;;9.30;5.97;;;5.90;99.90;;;;;;5126277;28;20210;-62
2024/01/11 11:36:42;;;;;;;5.37;4.80;;;5.90;99.90;;;;;;5126259;28;20192;-62
2024/01/11 11:39:12;;;;;;;5.70;4.90;;;5.80;99.90;;;;;;5125937;28;20325;-62
2024/01/11 11:41:42;;;;;;;6.20;5.10;;;5.90;99.90;;;;;;5126109;28;20199;-61
2024/01/11 11:44:13;;;;;;;6.70;5.50;;;6.10;99.90;;;;;;5125898;27;20218;-62
2024/01/11 11:46:43;;;;;;;7.37;6.63;;;6.00;99.90;;;;;;5125997;27;20260;-63
2024/01/11 11:49:14;;;;;;;10.13;7.57;;;6.10;99.90;;;;;;5126114;28;20185;-61
2024/01/11 11:51:44;;;;;;;14.70;7.40;;;6.00;99.90;;;;;;5126120;27;20630;-62
2024/01/11 11:54:14;;;;;;;6.73;6.00;;;6.10;99.90;;;;;;5126074;28;20203;-63
2024/01/11 11:56:43;;;;;;;6.73;6.03;;;6.20;99.90;;;;;;5125422;27;20560;-65
2024/01/11 11:59:12;;;;;;;18.40;10.10;;;6.20;99.90;;;;;;5125797;28;20612;-63
2024/01/11 12:01:41;;;;;;;14.57;8.97;;;6.30;99.90;;;;;;5125316;27;20284;-64
2024/01/11 12:04:09;;;;;;;9.63;7.30;;;6.40;99.90;;;;;;5125555;28;20223;-64
2024/01/11 12:06:40;;;;;;;11.23;7.10;;;6.40;99.90;;;;;;5125680;27;20207;-63
2024/01/11 12:09:09;;;;;;;12.83;7.57;;;6.40;99.90;;;;;;5125730;27;20595;-63
2024/01/11 12:11:37;;;;;;;13.57;7.97;;;6.40;99.90;;;;;;5125304;27;20204;-62
2024/01/11 12:14:06;;;;;;;12.50;7.23;;;6.40;99.90;;;;;;5118485;27;20207;-63
2024/01/11 12:16:34;;;;;;;12.67;7.47;;;6.40;99.90;;;;;;5111837;28;20203;-63
2024/01/11 12:19:02;;;;;;;12.77;7.83;;;6.30;99.90;;;;;;5111643;28;20660;-63
2024/01/11 12:21:31;;;;;;;11.67;7.83;;;6.40;99.90;;;;;;5111830;28;20207;-63
2024/01/11 12:24:00;;;;;;;11.70;6.77;;;6.40;99.90;;;;;;5111600;28;20899;-62
2024/01/11 12:26:29;;;;;;;11.63;6.53;;;6.60;99.90;;;;;;5111468;28;20233;-63
2024/01/11 12:28:57;;;;;;;10.40;6.00;;;6.70;99.90;;;;;;5111425;28;20200;-63
2024/01/11 12:31:26;;;;;;;12.17;8.80;;;6.60;99.90;;;;;;5111535;28;20288;-61
2024/01/11 12:33:55;;;;;;;16.00;10.50;;;6.70;99.90;;;;;;5111726;28;20250;-62
2024/01/11 12:36:25;;;;;;;15.40;10.30;;;6.60;99.90;;;;;;5111293;28;20200;-61
2024/01/11 12:38:54;;;;;;;18.67;8.97;;;6.50;99.90;;;;;;5111578;28;20222;-62
2024/01/11 12:41:24;;;;;;;13.43;8.40;;;6.50;99.90;;;;;;5111299;28;20237;-62
2024/01/11 12:43:53;;;;;;;10.97;8.80;;;6.40;99.90;;;;;;5110706;28;20685;-62
2024/01/11 12:46:22;;;;;;;12.20;8.10;;;6.40;99.90;;;;;;5110488;28;20279;-61
2024/01/11 12:48:51;;;;;;;16.00;7.13;;;6.30;99.90;;;;;;5111249;28;20191;-61
2024/01/11 12:51:20;;;;;;;9.77;6.83;;;6.30;99.90;;;;;;5111227;28;20612;-61
2024/01/11 12:53:49;;;;;;;13.20;6.80;;;6.30;99.90;;;;;;5111008;28;20715;-61
2024/01/11 12:56:21;;;;;;;11.10;6.10;;;6.40;99.90;;;;;;5111022;28;20235;-63
2024/01/11 12:58:51;;;;;;;8.03;5.13;;;6.40;99.90;;;;;;5111261;28;20591;-62
2024/01/11 13:01:20;;;;;;;8.03;6.07;;;6.40;99.90;;;;;;5111053;28;20201;-62
2024/01/11 13:03:48;;;;;;;12.33;7.70;;;6.40;99.90;;;;;;5092222;28;20682;-62